• Join FlightAware (Why Join?)
  • Login
  • US Flag 
02:35AM EST


 

Airport Tracker/Info


-or-


 

Live Flight TrackerFlight Track Log ✈ KFS73 ✈ 08-Aug-2013 ✈ KPIE - KHEF

Flight Track Log - Related Links

Times and Time Zones

All times are in EDT time to prevent confusion due to time zone crossing. See the KFS73 flight status page for this flight to view local times or setup timezone preferences in your user account.

Time Position Orientation Groundspeed Altitude Reporting Facility
EDT Latitude Longitude Course Direction KTS MPH feet Rate Location/Type
08:59AM 27.8833 -82.6833 249° West 157 181 1,100  Level Tampa TRACON
09:01AM 27.8667 -82.7333 249° West 218 251 2,500 1,380 Climbing Tampa TRACON
09:02AM 27.9167 -82.7667 330° Northwest 214 246 4,000 1,560 Climbing Tampa TRACON
09:03AM 28.0433 -82.7467 North 247 284 7,000 1,680 Climbing Jacksonville Center
09:04AM 28.1206 -82.7397 North 256 295 8,900 1,920 Climbing Jacksonville Center
09:05AM 28.2042 -82.7300 North 276 318 10,900 2,040 Climbing Jacksonville Center
09:06AM 28.2875 -82.7253 North 288 331 13,000 2,100 Climbing Jacksonville Center
09:07AM 28.3711 -82.7203 North 293 337 15,100 1,920 Climbing Jacksonville Center
09:08AM 28.4586 -82.7156 North 303 349 16,900 1,800 Climbing Jacksonville Center
09:09AM 28.5464 -82.7106 North 311 358 18,700 1,800 Climbing Jacksonville Center
09:10AM 28.6403 -82.6986 North 316 364 20,500 1,680 Climbing Jacksonville Center
09:11AM 28.7258 -82.6936 North 329 379 22,100 1,560 Climbing Jacksonville Center
09:12AM 28.8217 -82.6842 North 334 384 23,700 1,560 Climbing Jacksonville Center
09:13AM 28.9178 -82.6767 North 339 390 25,300 1,500 Climbing Jacksonville Center
09:14AM 29.0158 -82.6694 North 344 396 26,700 1,200 Climbing Jacksonville Center
09:15AM 29.1181 -82.6644 North 350 403 27,800 1,080 Climbing Jacksonville Center
09:16AM 29.2203 -82.6547 North 360 414 28,900 1,080 Climbing Jacksonville Center
09:17AM 29.3225 -82.6472 North 365 420 30,000 1,140 Climbing Jacksonville Center
09:18AM 29.4250 -82.6350 North 365 420 31,200 840 Climbing Jacksonville Center
09:19AM 29.5272 -82.6253 North 365 420 31,700 300 Climbing Jacksonville Center
09:20AM 29.6483 -82.6178 North 380 437 31,900 420 Climbing Jacksonville Center
09:21AM 29.7631 -82.6103 North 392 451 32,600 540 Climbing Jacksonville Center
09:22AM 29.8736 -82.6050 North 397 457 33,000 240 Climbing Jacksonville Center
09:23AM 29.9886 -82.5906 North 403 464 33,100  Climbing Jacksonville Center
09:24AM 30.0928 -82.5878 North 414 476 33,100 -60 Level Jacksonville Center
09:25AM 30.2097 -82.5778 North 414 476 33,000 -60 Descending Jacksonville Center
09:26AM 30.3372 -82.5678 North 419 482 33,000  Level Jacksonville Center
09:27AM 30.4539 -82.5600 North 419 482 33,000  Level Jacksonville Center
09:28AM 30.5689 -82.5331 11° North 419 482 33,000 -120 Level Jacksonville Center
09:29AM 30.6772 -82.4794 23° Northeast 414 476 32,800  Descending Jacksonville Center
09:30AM 30.7919 -82.4428 15° North 419 482 33,000 60 Climbing Jacksonville Center
09:31AM 30.9003 -82.3986 19° North 419 482 33,000  Level Jacksonville Center
09:32AM 31.0150 -82.3544 18° North 419 482 33,000  Level Jacksonville Center
09:33AM 31.1297 -82.3100 18° North 419 482 33,000  Level Jacksonville Center
09:34AM 31.2400 -82.2633 20° North 419 482 33,000  Level Jacksonville Center
09:35AM 31.3547 -82.2186 18° North 424 488 33,000  Level Jacksonville Center
09:36AM 31.4672 -82.1764 18° North 419 482 33,000  Level Jacksonville Center
09:37AM 31.5817 -82.1292 19° North 424 488 33,000  Level Jacksonville Center
09:38AM 31.6839 -82.0844 20° North 424 488 33,000  Level Jacksonville Center
09:39AM 31.8086 -82.0369 18° North 424 488 33,000  Level Jacksonville Center
09:40AM 31.9108 -81.9944 19° North 424 488 33,000  Level Jacksonville Center
09:41AM 32.0378 -81.9417 19° North 429 494 33,000  Level Jacksonville Center
09:42AM 32.1522 -81.8889 21° North 434 499 33,000  Level Jacksonville Center
09:43AM 32.2478 -81.8314 27° Northeast 434 499 33,000  Level Jacksonville Center
09:44AM 32.3744 -81.7758 20° North 434 499 33,000  Level Jacksonville Center
09:45AM 32.4911 -81.7275 19° North 429 494 33,000  Level Jacksonville Center
09:46AM 32.5908 -81.6744 24° Northeast 429 494 33,000  Level Jacksonville Center
09:47AM 32.6964 -81.5992 31° Northeast 436 502 33,000  Level Jacksonville Center
09:48AM 32.7936 -81.5111 37° Northeast 436 502 33,000  Level Jacksonville Center
09:49AM 32.8992 -81.4328 32° Northeast 441 507 33,000  Level Jacksonville Center
09:50AM 33.0025 -81.3519 33° Northeast 436 502 33,000  Level Jacksonville Center
09:51AM 33.1039 -81.2708 34° Northeast 436 502 33,000  Level Jacksonville Center
09:52AM 33.2072 -81.1919 33° Northeast 436 502 33,000  Level Jacksonville Center
09:53AM 33.3083 -81.1106 34° Northeast 436 502 33,000  Level Jacksonville Center
09:54AM 33.4136 -81.0336 31° Northeast 436 502 33,000  Level Jacksonville Center
09:55AM 33.5125 -80.9494 35° Northeast 436 502 33,000  Level Jacksonville Center
09:56AM 33.6136 -80.8650 35° Northeast 436 502 33,000  Level Jacksonville Center
09:57AM 33.7186 -80.7878 31° Northeast 436 502 33,100  Climbing Jacksonville Center
09:58AM 33.8175 -80.7078 34° Northeast 436 502 33,000  Descending Jacksonville Center
09:59AM 33.9225 -80.6250 33° Northeast 436 502 33,100 780 Climbing Jacksonville Center
10:00AM 34.0214 -80.5522 31° Northeast 431 496 34,600 900 Climbing Jacksonville Center
10:01AM 34.1200 -80.4819 31° Northeast 417 480 35,000 180 Climbing Jacksonville Center
10:02AM 34.2167 -80.4064 33° Northeast 417 480 35,000  Level Jacksonville Center
10:03AM 34.3194 -80.3306 31° Northeast 417 480 35,100  Climbing Jacksonville Center
10:06AM 34.5389 -80.1703 31° Northeast 416 479 35,100 -60 Level Washington Center
10:07AM 34.6381 -80.0903 34° Northeast 423 487 35,000 -60 Descending Washington Center
10:08AM 34.7453 -80.0103 32° Northeast 433 498 35,000  Level Washington Center
10:09AM 34.8461 -79.9347 32° Northeast 433 498 35,000  Level Washington Center
10:10AM 34.9492 -79.8542 33° Northeast 433 498 35,000  Level Washington Center
10:11AM 35.0542 -79.7808 30° Northeast 433 498 35,000  Level Washington Center
10:12AM 35.1528 -79.6997 34° Northeast 433 498 35,000  Level Washington Center
10:13AM 35.2575 -79.6261 30° Northeast 433 498 35,000  Level Washington Center
10:14AM 35.3606 -79.5447 33° Northeast 433 498 35,000  Level Washington Center
10:15AM 35.4653 -79.4658 32° Northeast 433 498 35,000  Level Washington Center
10:16AM 35.5700 -79.3867 32° Northeast 433 498 35,000 -60 Level Washington Center
10:17AM 35.6728 -79.3072 32° Northeast 439 505 34,900 -540 Descending Washington Center
10:18AM 35.7817 -79.2253 31° Northeast 444 511 34,000 -420 Descending Washington Center
10:19AM 35.8883 -79.1456 31° Northeast 449 517 34,100 -60 Climbing Washington Center
10:20AM 36.0008 -79.0839 24° Northeast 439 505 33,900 -1,140 Descending Washington Center
10:21AM 36.1131 -79.0244 23° Northeast 429 494 31,800 -2,100 Descending Washington Center
10:22AM 36.2117 -78.9336 37° Northeast 429 494 29,800 -1,860 Descending Washington Center
10:23AM 36.2994 -78.8575 35° Northeast 429 494 28,100 -1,380 Descending Washington Center
10:24AM 36.4061 -78.7664 34° Northeast 440 506 27,000 -540 Descending Washington Center
10:25AM 36.5186 -78.6933 28° Northeast 445 512 27,100 -60 Climbing Washington Center
10:26AM 36.6231 -78.6069 34° Northeast 450 518 26,900 -600 Descending Washington Center
10:27AM 36.7400 -78.5131 33° Northeast 450 518 26,000 -480 Descending Washington Center
10:28AM 36.8397 -78.4492 27° Northeast 445 512 26,000  Level Washington Center
10:29AM 36.9564 -78.3653 30° Northeast 440 506 26,000 -780 Level Washington Center
10:30AM 37.0647 -78.2833 31° Northeast 446 513 24,500 -1,500 Descending Washington Center
10:31AM 37.1686 -78.2111 29° Northeast 453 521 23,000 -780 Descending Washington Center
10:32AM 37.2744 -78.1314 31° Northeast 453 521 23,000  Level Washington Center
10:33AM 37.3828 -78.0486 31° Northeast 447 514 23,000 -540 Level Washington Center
10:34AM 37.4906 -77.9711 30° Northeast 442 509 22,000 -1,680 Descending Washington Center
10:35AM 37.5903 -77.8928 32° Northeast 437 503 19,700 -2,220 Descending Washington Center
10:36AM 37.6856 -77.8169 32° Northeast 417 480 17,700 -2,040 Descending Washington Center
10:37AM 37.7742 -77.7567 28° Northeast 387 445 15,600 -2,040 Descending Washington Center
10:38AM 37.8544 -77.6958 31° Northeast 356 410 13,600 -2,100 Descending Washington Center
10:39AM 37.9286 -77.6372 32° Northeast 327 376 11,400 -1,860 Descending Washington Center
10:40AM 38.0025 -77.5786 32° Northeast 315 362 10,000 -720 Descending Washington Center
10:41AM 38.0869 -77.5203 29° Northeast 308 354 10,000  Level Washington Center
10:42AM 38.1606 -77.4694 28° Northeast 303 349 10,000 -540 Level Washington Center
10:43AM 38.2331 -77.5081 337° Northwest 265 305 9,000 -1,380 Descending Washington Center
10:44AM 38.2925 -77.5706 320° Northwest 260 299 7,300 -1,620 Descending Washington Center
10:45AM 38.3603 -77.6281 326° Northwest 271 312 5,900 -1,380 Descending Washington Center
10:46AM 38.4350 -77.6486 348° North 266 306 4,600 -1,320 Descending Washington Center
10:47AM 38.5014 -77.6689 347° North 260 299 3,300 -840 Descending Washington Center
10:48AM 38.5700 -77.6894 347° North 254 292 3,000 -180 Descending Washington Center
10:49AM 38.6383 -77.7125 345° North 254 292 3,000 -120 Level Washington Center
10:50AM 38.7047 -77.7331 346° North 254 292 2,800 -120 Descending Washington Center
10:51AM 38.8167 -77.7000 13° North 207 238 2,700 -120 Descending Potomac TRACON
10:52AM 38.8500 -77.6667 38° Northeast 215 247 2,600 -120 Descending Potomac TRACON
10:53AM 38.8667 -77.6000 72° East 198 228 2,500 -180 Descending Potomac TRACON
10:54AM 38.8167 -77.5833 165° South 144 166 2,300 -540 Descending Potomac TRACON
10:55AM 38.7833 -77.5667 159° South 138 159 1,500 -780 Descending Potomac TRACON
10:56AM 38.7500 -77.5333 142° Southeast 126 145 800 -720 Descending Potomac TRACON
10:58AM 38.7210 -77.5151 330° Northwest  Level Estimated
11:05AM 38.7210 -77.5151 330° Northwest  Level Estimated
11:06AM 38.7210 -77.5151 330° Northwest  Level Estimated
11:07AM 38.7210 -77.5151 330° Northwest  Level Estimated
11:08AM 38.7210 -77.5151 330° Northwest  Level Estimated
11:09AM 38.7210 -77.5151 330° Northwest  Level Estimated
11:10AM 38.7210 -77.5151 330° Northwest  Level Estimated